createdAt,value
2022-12-08T00:04:50.342Z,1.5384615384615385
2022-12-08T00:11:18.374Z,0.4816053511705686
2022-12-08T00:17:45.870Z,1.0903010033444815
2022-12-08T00:24:16.248Z,0.842809364548495
2022-12-08T00:30:43.857Z,1.3979933110367893
2022-12-08T00:37:10.372Z,1.4381270903010033
2022-12-08T00:58:24.878Z,1.2909698996655519
2022-12-08T01:07:30.313Z,1.351170568561873
2022-12-08T01:13:58.094Z,0.8762541806020067
2022-12-08T01:20:25.358Z,1.157190635451505
2022-12-08T01:27:25.417Z,0.9698996655518395
2022-12-08T01:40:43.651Z,0.9899665551839465
2022-12-08T01:47:10.257Z,1.3311036789297659
2022-12-08T01:53:38.443Z,1.2775919732441472
2022-12-08T02:00:08.264Z,1.173913043478261
2022-12-08T02:07:41.983Z,0.7357859531772575
2022-12-08T02:14:34.464Z,0.8695652173913043
2022-12-08T02:26:51.401Z,1.4983277591973243
2022-12-08T02:33:19.086Z,1.1070234113712374
2022-12-08T02:39:46.794Z,0.9364548494983278
2022-12-08T02:50:53.271Z,1.2809364548494984
2022-12-08T02:57:20.446Z,1.7090301003344481
2022-12-08T03:03:48.572Z,2.0903010033444818
2022-12-08T03:10:16.315Z,0.7959866220735786
2022-12-08T03:18:55.359Z,0.8695652173913043
2022-12-08T03:25:24.346Z,1.3110367892976589
2022-12-08T03:31:52.768Z,0.9765886287625418
2022-12-08T03:38:20.475Z,1.354515050167224
2022-12-08T03:50:29.342Z,0.7424749163879598
2022-12-08T03:56:57.053Z,1.0969899665551839
2022-12-08T04:06:34.195Z,0.7959866220735786
2022-12-08T04:13:01.775Z,0.8494983277591973
2022-12-08T04:19:28.983Z,1.0501672240802675
2022-12-08T04:25:57.358Z,0.9565217391304348
2022-12-08T04:38:29.951Z,0.7892976588628763
2022-12-08T04:51:00.619Z,0.8294314381270903
2022-12-08T04:57:28.290Z,0.5819397993311036
2022-12-08T05:03:55.919Z,0.8528428093645485
2022-12-08T05:16:11.451Z,0.26755852842809363
2022-12-08T05:26:05.303Z,0.9431438127090301
2022-12-08T05:32:33.634Z,1.1705685618729098
2022-12-08T05:39:00.152Z,0.5217391304347826
2022-12-08T05:45:26.999Z,0.34782608695652173
2022-12-08T05:51:54.129Z,1.0234113712374582
2022-12-08T05:58:20.509Z,0.4080267558528428
2022-12-08T06:06:15.081Z,0.5217391304347826
2022-12-08T06:17:51.375Z,0.7324414715719063
2022-12-08T06:28:01.248Z,0.5551839464882943
2022-12-08T06:34:28.520Z,1.137123745819398
2022-12-08T06:47:08.036Z,0.9966555183946488
2022-12-08T06:53:35.603Z,0.4080267558528428
2022-12-08T07:02:47.517Z,0.5351170568561873
2022-12-08T07:09:14.785Z,0.35451505016722407
2022-12-08T07:15:42.071Z,0.8996655518394648
2022-12-08T07:27:19.868Z,0.34782608695652173
2022-12-08T07:33:47.147Z,0.22073578595317725
2022-12-08T07:40:14.389Z,0.6889632107023411
2022-12-08T07:46:43.157Z,0.5351170568561873
2022-12-08T08:01:30.204Z,0.7558528428093646
2022-12-08T08:07:58.906Z,0.9765886287625418
2022-12-08T08:20:58.108Z,0.3411371237458194
2022-12-08T08:27:26.667Z,0.6086956521739131
2022-12-08T08:33:55.698Z,0.17391304347826086
2022-12-08T08:49:53.711Z,0.7357859531772575
2022-12-08T08:56:23.716Z,0.2608695652173913
2022-12-08T09:02:56.431Z,0.6889632107023411
2022-12-08T09:11:16.437Z,1.0066889632107023
2022-12-08T09:18:14.796Z,0.5217391304347826
2022-12-08T09:24:45.336Z,0.6889632107023411
2022-12-08T09:36:12.425Z,0.34782608695652173
2022-12-08T09:42:42.607Z,0.7759197324414716
2022-12-08T09:49:11.341Z,0.9565217391304348
2022-12-08T09:55:40.227Z,1.1638795986622072
2022-12-08T10:02:10.768Z,0.7157190635451505
2022-12-08T10:08:39.578Z,0.9632107023411371
2022-12-08T10:15:09.507Z,0.5217391304347826
2022-12-08T10:21:38.685Z,0.6521739130434783
2022-12-08T10:28:08.458Z,0.44816053511705684
2022-12-08T10:45:32.330Z,0.9832775919732442
2022-12-08T10:53:55.382Z,0.8160535117056856
2022-12-08T11:00:24.043Z,0.2608695652173913
2022-12-08T11:06:53.944Z,1.2207357859531773
2022-12-08T11:13:22.196Z,0.6956521739130435
2022-12-08T11:21:50.075Z,0.7357859531772575
2022-12-08T11:28:19.067Z,1.0903010033444815
2022-12-08T11:34:47.374Z,0.6488294314381271
2022-12-08T11:41:16.632Z,0.5484949832775919
2022-12-08T11:57:33.620Z,3.31438127090301
2022-12-08T12:06:46.435Z,1.3779264214046822
2022-12-08T12:13:23.076Z,1.7892976588628762
2022-12-08T12:24:12.233Z,0.9899665551839465
2022-12-08T12:31:42.550Z,0.5217391304347826
2022-12-08T12:38:12.745Z,0.7725752508361204
2022-12-08T12:44:42.763Z,1.157190635451505
2022-12-08T12:51:11.573Z,0.5819397993311036
2022-12-08T12:57:40.114Z,0.34782608695652173
2022-12-08T13:04:08.423Z,0.903010033444816
2022-12-08T13:10:37.811Z,0.6488294314381271
2022-12-08T13:25:26.877Z,1.2842809364548495
2022-12-08T13:35:38.730Z,1.434782608695652
2022-12-08T13:42:29.679Z,0.6755852842809364
2022-12-08T13:57:01.261Z,1.193979933110368
2022-12-08T14:03:35.129Z,1.040133779264214
2022-12-08T14:10:03.694Z,1.1337792642140467
2022-12-08T14:16:32.522Z,0.9565217391304348
2022-12-08T14:23:02.191Z,0.8896321070234113
2022-12-08T14:29:30.460Z,0.8561872909698997
2022-12-08T14:36:14.070Z,0.9899665551839465
2022-12-08T14:42:42.967Z,1.588628762541806
2022-12-08T14:49:10.992Z,1.4013377926421404
2022-12-08T14:58:16.646Z,1.3177257525083612
2022-12-08T15:04:44.361Z,1.6923076923076923
2022-12-08T15:11:11.942Z,0.9431438127090301
2022-12-08T15:17:40.006Z,1.7491638795986622
2022-12-08T15:24:08.056Z,0.8695652173913043
2022-12-08T15:31:00.290Z,1.3478260869565217
2022-12-08T15:37:28.758Z,2.220735785953177
2022-12-08T15:43:56.705Z,1.6153846153846154
2022-12-08T15:50:25.167Z,1.0903010033444815
2022-12-08T16:01:13.592Z,1.8896321070234114
2022-12-08T16:07:41.894Z,1.508361204013378
2022-12-08T16:14:47.426Z,1.745819397993311
2022-12-08T16:22:30.388Z,2.0936454849498327
2022-12-08T16:29:19.874Z,2.745819397993311
2022-12-08T16:36:45.737Z,2.0234113712374584
2022-12-08T16:43:36.658Z,1.979933110367893
2022-12-08T16:50:26.345Z,1.6956521739130435
2022-12-08T16:57:32.762Z,2.220735785953177
2022-12-08T17:04:29.739Z,3.1638795986622075
2022-12-08T17:10:59.276Z,2.608695652173913
2022-12-08T17:17:27.667Z,1.9565217391304348
2022-12-08T17:26:18.909Z,2.274247491638796
2022-12-08T17:32:48.387Z,1.9163879598662208
2022-12-08T17:39:19.017Z,1.6187290969899666
2022-12-08T17:45:49.141Z,2.100334448160535
2022-12-08T17:52:17.588Z,2.6020066889632107
2022-12-08T17:58:48.674Z,1.3812709030100334
2022-12-08T18:06:43.790Z,4.2040133779264215
2022-12-08T18:13:12.418Z,3.1672240802675584
2022-12-08T18:19:41.419Z,3.240802675585284
2022-12-08T18:26:11.048Z,2.1103678929765888
2022-12-08T18:38:50.992Z,2.177257525083612
2022-12-08T18:45:22.221Z,3.3745819397993313
2022-12-08T18:54:16.861Z,3.57190635451505
2022-12-08T19:00:45.618Z,2.234113712374582
2022-12-08T19:07:13.776Z,3.57190635451505
2022-12-08T19:19:14.387Z,4.816053511705686
2022-12-08T19:25:44.996Z,4.525083612040134
2022-12-08T19:32:14.620Z,4.923076923076923
2022-12-08T19:38:44.396Z,3.809364548494983
2022-12-08T19:48:09.520Z,3.2842809364548495
2022-12-08T19:54:38.329Z,1.4414715719063544
2022-12-08T20:11:46.706Z,2.7959866220735785
2022-12-08T20:21:54.714Z,2.5150501672240804
2022-12-08T20:28:22.951Z,2.4983277591973243
2022-12-08T20:41:41.958Z,8.561872909698996
2022-12-08T20:48:09.054Z,5.762541806020067
2022-12-08T20:54:36.000Z,4.866220735785953
2022-12-08T21:07:06.408Z,3.321070234113712
2022-12-08T21:13:35.444Z,2.511705685618729
2022-12-08T21:22:18.491Z,2.668896321070234
2022-12-08T21:28:48.273Z,2.2642140468227425
2022-12-08T21:35:17.324Z,2.2073578595317724
2022-12-08T21:41:47.380Z,2.5150501672240804
2022-12-08T21:48:18.660Z,2.5150501672240804
2022-12-08T21:54:52.735Z,2.1438127090301005
2022-12-08T22:01:22.292Z,2.528428093645485
2022-12-08T22:07:54.184Z,2.8260869565217392
2022-12-08T22:14:25.337Z,2.551839464882943
2022-12-08T22:20:57.515Z,2.809364548494983
2022-12-08T22:29:05.986Z,2.4581939799331103
2022-12-08T22:35:36.290Z,3.722408026755853
2022-12-08T22:42:23.438Z,2.3377926421404682
2022-12-08T22:48:53.737Z,2.9933110367892977
2022-12-08T22:55:25.145Z,3.6923076923076925
2022-12-08T23:01:56.029Z,2.57190635451505
2022-12-08T23:08:26.839Z,2.745819397993311
2022-12-08T23:14:56.505Z,2.4615384615384617
2022-12-08T23:23:44.457Z,2.9163879598662206
2022-12-08T23:31:31.895Z,3.3812709030100336
2022-12-08T23:38:00.857Z,2.4381270903010033
2022-12-08T23:44:29.152Z,1.6789297658862876
2022-12-08T23:54:26.215Z,2.347826086956522
